createdAt,value
2018-06-04T00:00:01.247Z,17.40
2018-06-04T00:04:52.136Z,17.30
2018-06-04T00:09:43.031Z,17.30
2018-06-04T00:14:33.924Z,17.20
2018-06-04T00:19:24.819Z,17.20
2018-06-04T00:24:15.708Z,17.20
2018-06-04T00:29:06.597Z,17.10
2018-06-04T00:33:58.231Z,17.00
2018-06-04T00:38:49.868Z,17.00
2018-06-04T00:43:41.509Z,17.00
2018-06-04T00:48:33.144Z,16.90
2018-06-04T00:53:24.785Z,16.90
2018-06-04T00:58:15.746Z,16.90
2018-06-04T01:03:06.649Z,16.90
2018-06-04T01:07:57.547Z,16.90
2018-06-04T01:12:48.448Z,16.80
2018-06-04T01:17:40.145Z,16.70
2018-06-04T01:22:31.056Z,16.70
2018-06-04T01:27:21.953Z,16.70
2018-06-04T01:32:12.855Z,16.70
2018-06-04T01:37:03.745Z,16.60
2018-06-04T01:41:54.641Z,16.60
2018-06-04T01:46:45.540Z,16.50
2018-06-04T01:51:36.577Z,16.50
2018-06-04T01:56:27.498Z,16.40
2018-06-04T02:01:18.515Z,16.40
2018-06-04T02:06:09.414Z,16.30
2018-06-04T02:11:00.305Z,16.30
2018-06-04T02:15:51.211Z,16.20
2018-06-04T02:20:42.848Z,16.10
2018-06-04T02:25:34.479Z,16.10
2018-06-04T02:30:26.135Z,16.10
2018-06-04T02:35:17.037Z,16.00
2018-06-04T02:40:08.733Z,16.00
2018-06-04T02:44:59.629Z,15.90
2018-06-04T02:49:50.529Z,15.90
2018-06-04T02:54:41.430Z,15.90
2018-06-04T02:59:33.124Z,15.80
2018-06-04T03:04:24.029Z,15.70
2018-06-04T03:09:14.929Z,15.70
2018-06-04T03:14:05.834Z,15.70
2018-06-04T03:18:56.804Z,15.70
2018-06-04T03:23:47.714Z,15.60
2018-06-04T03:28:38.624Z,15.60
2018-06-04T03:33:29.529Z,15.60
2018-06-04T03:38:20.435Z,15.60
2018-06-04T03:43:11.332Z,15.60
2018-06-04T03:48:03.022Z,15.60
2018-06-04T03:52:53.932Z,15.50
2018-06-04T03:57:44.836Z,15.60
2018-06-04T04:02:35.780Z,15.60
2018-06-04T04:07:26.685Z,15.60
2018-06-04T04:12:17.585Z,15.60
2018-06-04T04:17:08.528Z,15.70
2018-06-04T04:21:59.452Z,15.70
2018-06-04T04:26:50.361Z,15.70
2018-06-04T04:31:41.283Z,15.80
2018-06-04T04:36:32.217Z,15.90
2018-06-04T04:41:23.940Z,16.00
2018-06-04T04:46:14.838Z,16.00
2018-06-04T04:51:05.775Z,16.10
2018-06-04T04:55:56.685Z,16.20
2018-06-04T05:00:47.626Z,16.30
2018-06-04T05:05:38.525Z,16.40
2018-06-04T05:10:29.469Z,16.50
2018-06-04T05:15:20.390Z,16.60
2018-06-04T05:20:11.284Z,16.80
2018-06-04T05:25:02.169Z,16.90
2018-06-04T05:29:53.075Z,17.00
2018-06-04T05:34:44.735Z,17.30
2018-06-04T05:39:35.640Z,17.30
2018-06-04T05:44:26.576Z,17.50
2018-06-04T05:49:17.473Z,17.70
2018-06-04T05:54:08.378Z,17.80
2018-06-04T05:59:00.016Z,18.20
2018-06-04T06:03:51.713Z,18.40
2018-06-04T06:08:42.794Z,18.30
2018-06-04T06:13:33.693Z,18.50
2018-06-04T06:18:25.397Z,18.80
2018-06-04T06:23:16.295Z,18.80
2018-06-04T06:28:07.188Z,19.00
2018-06-04T06:32:58.180Z,19.10
2018-06-04T06:37:49.821Z,19.40
2018-06-04T06:42:41.523Z,19.50
2018-06-04T06:47:32.427Z,19.50
2018-06-04T06:52:23.357Z,19.60
2018-06-04T06:57:14.262Z,19.80
2018-06-04T07:02:05.167Z,19.90
2018-06-04T07:06:56.070Z,20.10
2018-06-04T07:11:47.020Z,20.30
2018-06-04T07:16:37.917Z,20.50
2018-06-04T07:21:29.085Z,20.80
2018-06-04T07:26:19.932Z,21.00
2018-06-04T07:31:11.573Z,21.50
2018-06-04T07:36:02.465Z,21.50
2018-06-04T07:40:54.197Z,22.00
2018-06-04T07:45:45.092Z,22.00
2018-06-04T07:50:35.981Z,22.20
2018-06-04T07:55:26.889Z,22.40
2018-06-04T08:00:17.809Z,22.60
2018-06-04T08:05:08.957Z,22.70
2018-06-04T08:09:59.888Z,22.90
2018-06-04T08:14:50.772Z,23.10
2018-06-04T08:19:41.693Z,23.10
2018-06-04T08:24:32.603Z,23.30
2018-06-04T08:29:23.500Z,23.40
2018-06-04T08:34:15.138Z,23.70
2018-06-04T08:39:06.775Z,23.80
2018-06-04T08:43:58.422Z,23.90
2018-06-04T08:48:49.325Z,23.90
2018-06-04T08:53:41.034Z,24.10
2018-06-04T08:58:31.947Z,24.10
2018-06-04T09:03:22.840Z,24.20
2018-06-04T09:08:13.781Z,24.30
2018-06-04T09:13:04.668Z,24.40
2018-06-04T09:17:55.569Z,24.50
2018-06-04T09:22:46.464Z,24.60
2018-06-04T09:27:38.104Z,24.70
2018-06-04T09:32:29.757Z,24.80
2018-06-04T09:37:20.722Z,24.70
2018-06-04T09:42:11.645Z,24.80
2018-06-04T09:47:02.541Z,24.90
2018-06-04T09:51:53.440Z,25.00
2018-06-04T09:56:44.350Z,25.10
2018-06-04T10:01:35.258Z,25.20
2018-06-04T10:06:26.914Z,25.50
2018-06-04T10:11:17.822Z,25.50
2018-06-04T10:16:08.788Z,25.70
2018-06-04T10:20:59.696Z,25.80
2018-06-04T10:25:50.618Z,26.00
2018-06-04T10:30:41.521Z,26.00
2018-06-04T10:35:32.449Z,26.10
2018-06-04T10:40:23.344Z,26.20
2018-06-04T10:45:14.261Z,26.20
2018-06-04T10:50:05.166Z,26.40
2018-06-04T10:54:56.141Z,26.50
2018-06-04T10:59:47.048Z,26.70
2018-06-04T11:04:37.940Z,26.80
2018-06-04T11:09:28.846Z,27.00
2018-06-04T11:14:19.753Z,27.30
2018-06-04T11:19:11.387Z,27.60
2018-06-04T11:24:03.029Z,27.70
2018-06-04T11:28:53.991Z,27.70
2018-06-04T11:33:44.916Z,27.90
2018-06-04T11:38:35.811Z,28.00
2018-06-04T11:43:26.721Z,28.20
2018-06-04T11:48:17.622Z,28.40
2018-06-04T11:53:08.520Z,28.60
2018-06-04T11:58:00.176Z,29.10
2018-06-04T12:02:51.089Z,29.00
2018-06-04T12:07:42.004Z,29.30
2018-06-04T12:12:32.913Z,29.50
2018-06-04T12:17:24.567Z,29.90
2018-06-04T12:22:15.459Z,29.90
2018-06-04T12:27:06.348Z,30.20
2018-06-04T12:31:57.249Z,30.60
2018-06-04T12:36:48.153Z,30.90
2018-06-04T12:41:39.160Z,31.20
2018-06-04T12:46:30.124Z,31.40
2018-06-04T12:51:21.025Z,31.60
2018-06-04T12:56:11.953Z,31.70
2018-06-04T13:01:02.917Z,31.90
2018-06-04T13:05:54.561Z,32.20
2018-06-04T13:10:46.213Z,32.30
2018-06-04T13:15:37.208Z,32.30
2018-06-04T13:20:28.870Z,32.50
2018-06-04T13:25:19.831Z,32.50
2018-06-04T13:30:10.762Z,32.50
2018-06-04T13:35:01.667Z,32.60
2018-06-04T13:39:52.559Z,32.70
2018-06-04T13:44:43.497Z,32.70
2018-06-04T13:49:34.411Z,32.70
2018-06-04T13:54:25.401Z,32.70
2018-06-04T13:59:16.317Z,32.70
2018-06-04T14:04:07.246Z,32.70
2018-06-04T14:08:58.367Z,32.70
2018-06-04T14:13:49.404Z,32.80
2018-06-04T14:18:40.304Z,32.90
2018-06-04T14:23:31.195Z,32.80
2018-06-04T14:28:22.851Z,32.70
2018-06-04T14:33:13.756Z,32.60
2018-06-04T14:38:05.457Z,32.70
2018-06-04T14:42:56.371Z,32.60
2018-06-04T14:47:47.272Z,32.70
2018-06-04T14:52:38.163Z,32.70
2018-06-04T14:57:29.090Z,32.60
2018-06-04T15:02:20.048Z,32.60
2018-06-04T15:07:10.961Z,32.50
2018-06-04T15:12:01.865Z,32.40
2018-06-04T15:16:52.773Z,32.30
2018-06-04T15:21:43.666Z,32.10
2018-06-04T15:26:34.564Z,32.00
2018-06-04T15:31:26.209Z,31.60
2018-06-04T15:36:17.875Z,31.50
2018-06-04T15:41:08.782Z,31.50
2018-06-04T15:45:59.676Z,31.40
2018-06-04T15:50:51.317Z,31.10
2018-06-04T15:55:42.957Z,30.90
2018-06-04T16:00:34.612Z,30.70
2018-06-04T16:05:25.517Z,30.70
2018-06-04T16:10:17.161Z,30.30
2018-06-04T16:15:08.052Z,30.30
2018-06-04T16:19:59.784Z,29.90
2018-06-04T16:24:50.781Z,29.80
2018-06-04T16:29:41.693Z,29.60
2018-06-04T16:34:32.657Z,29.40
2018-06-04T16:39:24.332Z,29.00
2018-06-04T16:44:15.284Z,29.00
2018-06-04T16:49:06.292Z,28.90
2018-06-04T16:54:04.117Z,28.70
2018-06-04T16:58:55.137Z,28.50
2018-06-04T17:03:46.113Z,28.30
2018-06-04T17:08:37.025Z,28.10
2018-06-04T17:13:27.977Z,28.00
2018-06-04T17:18:19.682Z,27.60
2018-06-04T17:23:10.589Z,27.50
2018-06-04T17:28:01.513Z,27.40
2018-06-04T17:32:52.436Z,27.20
2018-06-04T17:37:43.687Z,27.00
2018-06-04T17:42:35.405Z,26.60
2018-06-04T17:47:26.336Z,26.60
2018-06-04T17:52:17.272Z,26.40
2018-06-04T17:57:08.981Z,26.10
2018-06-04T18:02:00.001Z,26.10
2018-06-04T18:06:50.923Z,25.90
2018-06-04T18:11:41.985Z,25.70
2018-06-04T18:16:34.053Z,25.40
2018-06-04T18:21:24.965Z,25.40
2018-06-04T18:26:15.929Z,25.20
2018-06-04T18:31:06.850Z,25.00
2018-06-04T18:35:57.753Z,24.90
2018-06-04T18:40:48.662Z,24.70
2018-06-04T18:45:39.657Z,24.60
2018-06-04T18:50:30.604Z,24.40
2018-06-04T18:55:21.502Z,24.30
2018-06-04T19:00:12.399Z,24.10
2018-06-04T19:05:04.081Z,23.80
2018-06-04T19:09:55.035Z,23.70
2018-06-04T19:14:46.029Z,23.60
2018-06-04T19:19:36.920Z,23.50
2018-06-04T19:24:27.829Z,23.30
2018-06-04T19:29:18.783Z,23.20
2018-06-04T19:34:09.700Z,23.00
2018-06-04T19:39:00.600Z,22.80
2018-06-04T19:43:51.505Z,22.70
2018-06-04T19:48:42.451Z,22.50
2018-06-04T19:53:33.355Z,22.40
2018-06-04T19:58:24.334Z,22.20
2018-06-04T20:03:15.977Z,21.90
2018-06-04T20:08:07.706Z,21.70
2018-06-04T20:12:59.438Z,21.60
2018-06-04T20:17:51.096Z,21.50
2018-06-04T20:22:42.040Z,21.40
2018-06-04T20:27:32.977Z,21.30
2018-06-04T20:32:23.906Z,21.20
2018-06-04T20:37:14.828Z,21.10
2018-06-04T20:42:05.761Z,20.90
2018-06-04T20:46:56.758Z,20.80
2018-06-04T20:51:47.663Z,20.70
2018-06-04T20:56:38.565Z,20.50
2018-06-04T21:01:29.545Z,20.40
2018-06-04T21:06:21.249Z,20.20
2018-06-04T21:11:12.172Z,20.20
2018-06-04T21:16:03.173Z,20.10
2018-06-04T21:20:54.107Z,20.00
2018-06-04T21:25:45.009Z,19.90
2018-06-04T21:30:35.950Z,19.70
2018-06-04T21:35:26.869Z,19.70
2018-06-04T21:40:17.781Z,19.50
2018-06-04T21:45:08.685Z,19.40
2018-06-04T21:49:59.628Z,19.30
2018-06-04T21:54:52.083Z,19.10
2018-06-04T21:59:42.996Z,19.10
2018-06-04T22:04:33.937Z,19.10
2018-06-04T22:09:24.933Z,18.90
2018-06-04T22:14:15.844Z,18.90
2018-06-04T22:19:06.776Z,18.70
2018-06-04T22:23:57.680Z,18.70
2018-06-04T22:28:48.585Z,18.60
2018-06-04T22:33:39.528Z,18.50
2018-06-04T22:38:30.445Z,18.40
2018-06-04T22:43:21.350Z,18.30
2018-06-04T22:48:12.268Z,18.20
2018-06-04T22:53:03.169Z,18.10
2018-06-04T22:57:54.067Z,18.00
2018-06-04T23:02:44.972Z,17.90
2018-06-04T23:07:36.614Z,17.80
2018-06-04T23:12:28.749Z,17.70
2018-06-04T23:17:20.453Z,17.60
2018-06-04T23:22:11.357Z,17.60
2018-06-04T23:27:02.257Z,17.50
2018-06-04T23:31:53.214Z,17.50
2018-06-04T23:36:44.115Z,17.40
2018-06-04T23:41:35.039Z,17.30
2018-06-04T23:46:25.940Z,17.20
2018-06-04T23:51:16.888Z,17.20
2018-06-04T23:56:07.792Z,17.10
